Time;durP1;ratioP1;P1;durP2;ratioP2;P2;SDS_P1;SDS_P2;PMS_P1;PMS_P2;Temp;Humidity;BMP_temperature;BMP_pressure;BME280_temperature;BME280_humidity;BME280_pressure;Samples;Min_cycle;Max_cycle;Signal;HPM_P1;HPM_P2
2023/01/12 00:01:40;;;;;;;35.75;3.30;;;7.10;99.90;;;;;;5013791;28;20057;-63
2023/01/12 00:04:06;;;;;;;24.10;2.97;;;7.20;99.90;;;;;;5030471;28;20049;-63
2023/01/12 00:06:32;;;;;;;30.45;2.95;;;7.30;99.90;;;;;;5030648;28;20545;-63
2023/01/12 00:09:01;;;;;;;23.67;1.67;;;7.40;99.90;;;;;;5048496;28;20057;-63
2023/01/12 00:11:27;;;;;;;10.32;1.77;;;7.50;99.90;;;;;;5049363;28;20059;-63
2023/01/12 00:13:52;;;;;;;3.92;0.98;;;7.50;99.90;;;;;;5048637;28;20488;-62
2023/01/12 00:16:33;;;;;;;6.63;0.73;;;7.40;99.90;;;;;;5022495;28;20059;-63
2023/01/12 00:19:11;;;;;;;1.48;0.57;;;7.30;99.90;;;;;;5030706;28;20044;-62
2023/01/12 00:21:49;;;;;;;17.38;1.33;;;7.30;99.90;;;;;;5034276;28;20041;-62
2023/01/12 00:24:17;;;;;;;1.52;0.60;;;7.20;99.90;;;;;;5043736;28;20055;-62
2023/01/12 00:26:44;;;;;;;10.73;1.10;;;7.20;99.90;;;;;;5048220;28;20052;-63
2023/01/12 00:29:09;;;;;;;4.53;0.75;;;7.20;99.90;;;;;;5048148;28;20101;-63
2023/01/12 00:31:35;;;;;;;21.13;1.63;;;7.20;99.90;;;;;;5029094;28;20044;-63
2023/01/12 00:34:01;;;;;;;9.60;1.35;;;7.30;99.90;;;;;;5041186;28;20037;-63
2023/01/12 00:36:27;;;;;;;26.98;2.63;;;7.30;99.90;;;;;;5048159;28;20510;-63
2023/01/12 00:38:52;;;;;;;26.25;3.42;;;7.30;99.90;;;;;;5030160;28;20064;-63
2023/01/12 00:46:49;;;;;;;21.48;2.72;;;7.40;99.90;;;;;;5048104;28;20049;-63
2023/01/12 00:49:15;;;;;;;30.33;2.85;;;7.40;99.90;;;;;;5047529;28;20475;-63
2023/01/12 00:51:41;;;;;;;32.10;3.05;;;7.40;99.90;;;;;;5047994;28;20072;-63
2023/01/12 00:54:08;;;;;;;33.53;2.95;;;7.50;99.90;;;;;;5026850;28;20047;-63
2023/01/12 00:56:34;;;;;;;30.70;3.60;;;7.50;99.90;;;;;;5047958;28;20045;-64
2023/01/12 00:59:00;;;;;;;34.35;4.53;;;7.50;99.90;;;;;;5048512;28;20044;-63
2023/01/12 01:01:26;;;;;;;41.75;3.97;;;7.50;99.90;;;;;;5024029;28;20057;-63
2023/01/12 01:03:53;;;;;;;38.35;3.35;;;7.60;99.90;;;;;;5032710;28;20435;-63
2023/01/12 01:06:19;;;;;;;48.95;3.95;;;7.60;99.90;;;;;;5009167;28;20133;-63
2023/01/12 01:08:46;;;;;;;30.88;3.08;;;7.60;99.90;;;;;;5046289;28;20037;-63
2023/01/12 01:11:13;;;;;;;38.42;3.90;;;7.70;99.90;;;;;;5033514;28;20094;-64
2023/01/12 01:13:40;;;;;;;35.83;2.90;;;7.70;99.90;;;;;;5029671;28;20048;-63
2023/01/12 01:16:07;;;;;;;30.85;3.08;;;7.70;99.90;;;;;;5044384;28;20045;-64
2023/01/12 01:18:34;;;;;;;31.33;3.53;;;7.80;99.90;;;;;;5039554;28;20048;-64
2023/01/12 01:21:00;;;;;;;40.78;4.35;;;7.80;99.90;;;;;;5041856;28;20041;-63
2023/01/12 01:23:27;;;;;;;30.23;3.22;;;7.80;99.90;;;;;;5047064;28;20049;-63
2023/01/12 01:25:54;;;;;;;44.22;3.95;;;7.70;99.90;;;;;;5046190;28;20037;-63
2023/01/12 01:28:20;;;;;;;32.13;3.13;;;7.80;99.90;;;;;;5012640;28;20052;-64
2023/01/12 01:30:48;;;;;;;38.92;4.53;;;7.70;99.90;;;;;;5047336;28;20142;-64
2023/01/12 01:33:14;;;;;;;41.83;4.22;;;7.70;99.90;;;;;;5043994;28;20146;-63
2023/01/12 01:35:39;;;;;;;30.65;3.42;;;7.70;99.90;;;;;;5038737;28;20100;-63
2023/01/12 01:38:05;;;;;;;41.40;3.72;;;7.70;99.90;;;;;;5042368;28;20498;-64
2023/01/12 01:40:32;;;;;;;45.55;4.78;;;7.70;99.90;;;;;;5037961;28;20678;-64
2023/01/12 01:42:59;;;;;;;48.85;4.85;;;7.70;99.90;;;;;;5047346;28;20522;-63
2023/01/12 01:45:25;;;;;;;36.25;3.22;;;7.70;99.90;;;;;;5046034;28;20045;-63
2023/01/12 01:48:00;;;;;;;31.00;3.08;;;7.70;99.90;;;;;;5042068;28;20067;-63
2023/01/12 01:50:36;;;;;;;37.83;3.63;;;7.70;99.90;;;;;;5044626;28;20053;-64
2023/01/12 01:53:07;;;;;;;21.95;2.67;;;7.70;99.90;;;;;;5046657;28;20055;-63
2023/01/12 01:55:42;;;;;;;33.40;3.35;;;7.70;99.90;;;;;;5046812;28;20041;-63
2023/01/12 01:58:15;;;;;;;30.83;2.95;;;7.80;99.90;;;;;;5026712;28;20045;-65
2023/01/12 02:00:43;;;;;;;33.05;2.95;;;7.80;99.90;;;;;;5046580;28;20040;-63
2023/01/12 02:03:11;;;;;;;31.50;3.20;;;7.80;99.90;;;;;;5038131;28;20094;-63
2023/01/12 02:05:40;;;;;;;27.23;3.10;;;7.80;99.90;;;;;;5024931;28;20506;-63
2023/01/12 02:08:31;;;;;;;23.13;2.40;;;7.90;99.90;;;;;;5036606;28;20080;-63
2023/01/12 02:11:00;;;;;;;34.92;3.45;;;7.80;99.90;;;;;;5046421;28;20029;-64
2023/01/12 02:16:19;;;;;;;36.50;4.03;;;7.90;99.90;;;;;;5045466;28;20045;-63
2023/01/12 02:19:03;;;;;;;35.50;3.60;;;7.90;99.90;;;;;;5046532;28;20523;-63
2023/01/12 02:21:34;;;;;;;42.60;4.07;;;7.90;99.90;;;;;;5046649;28;20086;-63
2023/01/12 02:24:17;;;;;;;36.58;3.10;;;7.90;99.90;;;;;;5046614;28;20049;-63
2023/01/12 02:26:53;;;;;;;41.97;4.35;;;7.90;99.90;;;;;;5034475;28;20568;-63
2023/01/12 02:29:33;;;;;;;38.53;4.13;;;7.90;99.90;;;;;;5046080;28;20770;-63
2023/01/12 02:32:17;;;;;;;34.13;4.23;;;7.90;99.90;;;;;;5027693;28;20055;-63
2023/01/12 02:34:50;;;;;;;22.50;2.15;;;7.90;99.90;;;;;;5046648;28;20280;-63
2023/01/12 02:37:31;;;;;;;45.47;3.97;;;7.90;99.90;;;;;;5045706;28;20084;-63
2023/01/12 02:40:31;;;;;;;30.40;2.15;;;7.90;99.90;;;;;;5046702;28;20042;-63
2023/01/12 02:43:11;;;;;;;26.60;2.55;;;7.90;99.90;;;;;;5004141;28;20144;-64
2023/01/12 02:45:50;;;;;;;41.50;3.80;;;7.90;99.90;;;;;;5045925;28;20045;-63
2023/01/12 02:48:38;;;;;;;26.08;2.45;;;8.00;99.90;;;;;;5035315;28;20527;-64
2023/01/12 02:51:38;;;;;;;36.65;3.30;;;8.00;99.90;;;;;;5046658;28;20063;-64
2023/01/12 02:54:09;;;;;;;43.63;4.43;;;8.00;99.90;;;;;;5034989;28;20044;-63
2023/01/12 02:56:49;;;;;;;40.95;4.18;;;8.10;99.90;;;;;;5030914;28;20568;-63
2023/01/12 02:59:27;;;;;;;27.70;3.63;;;8.00;99.90;;;;;;5044464;28;20045;-63
2023/01/12 03:01:59;;;;;;;34.63;3.20;;;8.10;99.90;;;;;;5025942;28;20045;-63
2023/01/12 03:04:27;;;;;;;38.28;3.55;;;8.10;99.90;;;;;;5032022;28;20511;-63
2023/01/12 03:06:56;;;;;;;34.80;3.50;;;8.10;99.90;;;;;;5031600;28;20052;-63
2023/01/12 03:09:59;;;;;;;38.88;3.50;;;8.10;99.90;;;;;;5048525;28;20048;-63
2023/01/12 03:12:30;;;;;;;24.98;2.42;;;8.10;99.90;;;;;;5033093;28;20431;-63
2023/01/12 03:14:58;;;;;;;43.60;3.92;;;8.10;99.90;;;;;;5049690;28;20238;-63
2023/01/12 03:17:26;;;;;;;30.60;3.05;;;8.10;99.90;;;;;;5050228;28;20484;-63
2023/01/12 03:19:55;;;;;;;27.98;3.10;;;8.10;99.90;;;;;;5048957;28;20500;-63
2023/01/12 03:22:21;;;;;;;38.42;3.60;;;8.20;99.90;;;;;;5049831;28;20052;-63
2023/01/12 03:24:54;;;;;;;35.70;4.05;;;8.20;99.90;;;;;;5027839;28;20072;-63
2023/01/12 03:27:45;;;;;;;24.45;1.73;;;8.20;99.90;;;;;;5031141;28;20396;-63
2023/01/12 03:30:16;;;;;;;29.30;3.30;;;8.20;99.90;;;;;;5046377;28;20099;-63
2023/01/12 03:32:44;;;;;;;30.30;3.85;;;8.20;99.90;;;;;;5047520;28;20029;-63
2023/01/12 03:35:11;;;;;;;28.48;2.80;;;8.20;99.90;;;;;;5049553;28;20036;-63
2023/01/12 03:37:41;;;;;;;32.80;3.60;;;8.20;99.90;;;;;;5049149;28;20063;-63
2023/01/12 03:40:17;;;;;;;;;;;8.20;99.90;;;;;;5047793;28;20526;-63
2023/01/12 03:42:52;;;;;;;28.48;2.72;;;8.20;99.90;;;;;;5049215;28;19921;-63
2023/01/12 03:45:39;;;;;;;29.70;3.55;;;8.20;99.90;;;;;;5046902;28;20041;-63
2023/01/12 03:48:12;;;;;;;36.80;3.78;;;8.20;99.90;;;;;;5031325;28;20055;-63
2023/01/12 03:51:00;;;;;;;30.20;3.60;;;8.30;99.90;;;;;;5048535;28;20440;-63
2023/01/12 03:53:28;;;;;;;25.70;3.10;;;8.20;99.90;;;;;;5048715;28;20036;-63
2023/01/12 03:56:01;;;;;;;43.97;4.68;;;8.30;99.90;;;;;;5049248;28;20037;-63
2023/01/12 03:58:27;;;;;;;37.50;3.38;;;8.30;99.90;;;;;;5031036;28;20063;-62
2023/01/12 04:00:53;;;;;;;35.92;3.05;;;8.30;99.90;;;;;;5047604;28;20385;-63
2023/01/12 04:03:19;;;;;;;28.30;3.22;;;8.30;99.90;;;;;;5048649;28;20059;-62
2023/01/12 04:05:45;;;;;;;29.92;3.45;;;8.30;99.90;;;;;;5048311;28;20055;-63
2023/01/12 04:08:13;;;;;;;38.67;3.83;;;8.30;99.90;;;;;;5048234;28;20052;-62
2023/01/12 04:10:40;;;;;;;37.30;3.25;;;8.40;99.90;;;;;;5048061;28;20426;-63
2023/01/12 04:13:06;;;;;;;19.40;2.10;;;8.40;99.90;;;;;;5044591;28;20044;-62
2023/01/12 04:15:36;;;;;;;38.40;3.22;;;8.40;99.90;;;;;;5048212;28;20045;-62
2023/01/12 04:18:03;;;;;;;26.90;3.10;;;8.40;99.90;;;;;;5049474;28;20041;-62
2023/01/12 04:20:29;;;;;;;20.13;2.47;;;8.40;99.90;;;;;;5048888;28;20049;-63
2023/01/12 04:22:55;;;;;;;25.88;2.58;;;8.40;99.90;;;;;;5030432;28;20033;-62
2023/01/12 04:25:21;;;;;;;22.45;2.95;;;8.40;99.90;;;;;;5022913;28;20106;-62
2023/01/12 04:27:55;;;;;;;31.10;3.45;;;8.40;99.90;;;;;;5047990;28;20052;-63
2023/01/12 04:30:25;;;;;;;23.10;2.70;;;8.50;99.90;;;;;;5031317;28;20585;-62
2023/01/12 04:32:52;;;;;;;23.75;4.00;;;8.50;99.90;;;;;;5047124;28;20040;-62
2023/01/12 04:35:18;;;;;;;19.77;2.83;;;8.50;99.90;;;;;;5044199;28;20049;-63
2023/01/12 04:37:44;;;;;;;20.10;1.85;;;8.40;99.90;;;;;;5047730;28;20056;-63
2023/01/12 04:40:12;;;;;;;14.77;2.42;;;8.40;99.90;;;;;;5030579;28;20337;-63
2023/01/12 04:43:03;;;;;;;15.90;1.85;;;8.40;99.90;;;;;;5047890;28;20181;-62
2023/01/12 04:45:35;;;;;;;19.95;2.42;;;8.40;99.90;;;;;;5047816;28;20045;-63
2023/01/12 04:48:09;;;;;;;20.05;1.85;;;8.50;99.90;;;;;;5048200;28;20047;-62
2023/01/12 04:50:37;;;;;;;20.85;2.40;;;8.40;99.90;;;;;;5030396;28;20138;-63
2023/01/12 04:53:04;;;;;;;25.10;3.80;;;8.50;99.90;;;;;;5047681;28;20509;-62
2023/01/12 04:55:30;;;;;;;29.60;2.78;;;8.50;99.90;;;;;;5047731;28;20407;-62
2023/01/12 04:57:56;;;;;;;10.27;1.10;;;8.40;99.90;;;;;;5047516;28;20049;-62
2023/01/12 05:00:22;;;;;;;6.70;1.30;;;8.40;99.90;;;;;;5048010;28;20040;-63
2023/01/12 05:02:49;;;;;;;19.67;2.35;;;8.40;99.90;;;;;;5041485;28;20052;-62
2023/01/12 05:05:15;;;;;;;3.00;1.55;;;8.40;99.90;;;;;;5017757;28;20088;-63
2023/01/12 05:10:21;;;;;;;12.18;1.75;;;8.40;99.90;;;;;;5047278;28;20056;-63
2023/01/12 05:10:28;;;;;;;21.85;2.25;;;8.40;99.90;;;;;;5047638;28;20057;-62
2023/01/12 05:12:55;;;;;;;7.57;1.17;;;8.50;99.90;;;;;;5029463;28;20124;-62
2023/01/12 05:15:21;;;;;;;12.10;1.70;;;8.50;99.90;;;;;;5029162;28;20084;-63
2023/01/12 05:17:48;;;;;;;13.80;1.63;;;8.50;99.90;;;;;;5047460;28;20039;-62
2023/01/12 05:20:13;;;;;;;8.50;1.17;;;8.50;99.90;;;;;;5028683;28;20123;-62
2023/01/12 05:22:39;;;;;;;21.92;2.33;;;8.50;99.90;;;;;;5047843;28;20056;-63
2023/01/12 05:25:06;;;;;;;10.30;1.55;;;8.40;99.90;;;;;;5023029;28;20041;-62
2023/01/12 05:27:31;;;;;;;12.02;1.15;;;8.40;99.90;;;;;;5042052;28;20614;-62
2023/01/12 05:29:58;;;;;;;10.05;1.17;;;8.40;99.90;;;;;;5047163;28;20044;-63
2023/01/12 05:32:25;;;;;;;17.15;1.40;;;8.40;99.90;;;;;;5046383;28;20499;-62
2023/01/12 05:34:50;;;;;;;5.07;1.05;;;8.40;99.90;;;;;;5046372;28;20591;-63
2023/01/12 05:37:16;;;;;;;15.82;1.33;;;8.40;99.90;;;;;;5020635;28;20087;-63
2023/01/12 05:39:42;;;;;;;5.22;0.90;;;8.30;99.90;;;;;;5034857;28;20410;-63
2023/01/12 05:44:52;;;;;;;11.02;1.25;;;8.30;99.90;;;;;;5047112;28;20037;-63
2023/01/12 05:47:18;;;;;;;7.22;1.30;;;8.30;99.90;;;;;;5046388;28;20403;-62
2023/01/12 05:49:43;;;;;;;6.50;0.68;;;8.30;99.90;;;;;;5047032;28;20045;-63
2023/01/12 05:52:09;;;;;;;4.47;0.93;;;8.30;99.90;;;;;;5046591;28;20091;-63
2023/01/12 05:54:35;;;;;;;2.17;0.63;;;8.30;99.90;;;;;;5047070;28;20407;-63
2023/01/12 05:57:00;;;;;;;4.95;0.68;;;8.30;99.90;;;;;;5022963;28;20037;-63
2023/01/12 05:59:26;;;;;;;1.67;0.40;;;8.20;99.90;;;;;;5012319;28;20080;-62
2023/01/12 06:01:52;;;;;;;7.47;1.05;;;8.20;99.90;;;;;;5041158;28;20041;-62
2023/01/12 06:04:18;;;;;;;6.70;0.80;;;8.20;99.90;;;;;;5046683;28;20041;-63
2023/01/12 06:06:45;;;;;;;3.70;0.63;;;8.20;99.90;;;;;;5026243;28;20532;-62
2023/01/12 06:09:10;;;;;;;5.35;0.63;;;8.20;99.90;;;;;;5045959;28;20044;-63
2023/01/12 06:14:21;;;;;;;1.20;0.32;;;8.20;99.90;;;;;;5046796;28;20494;-63
2023/01/12 06:16:47;;;;;;;3.35;0.68;;;8.20;99.90;;;;;;5045992;28;20414;-63
2023/01/12 06:19:13;;;;;;;6.22;0.70;;;8.20;99.90;;;;;;5046473;28;20047;-63
2023/01/12 06:21:39;;;;;;;0.90;0.73;;;8.20;99.90;;;;;;5028503;28;20129;-63
2023/01/12 06:24:05;;;;;;;0.82;0.38;;;8.20;99.90;;;;;;5046588;28;20081;-62
2023/01/12 06:26:31;;;;;;;7.28;1.02;;;8.20;99.90;;;;;;5046477;28;20528;-63
2023/01/12 06:28:57;;;;;;;2.10;0.40;;;8.20;99.90;;;;;;5045864;28;20049;-63
2023/01/12 06:31:23;;;;;;;4.15;0.45;;;8.20;99.90;;;;;;5032359;28;20788;-63
2023/01/12 06:33:48;;;;;;;4.88;0.52;;;8.20;99.90;;;;;;5035211;28;20131;-63
2023/01/12 06:36:14;;;;;;;2.17;0.50;;;8.20;99.90;;;;;;5052909;28;20033;-63
2023/01/12 06:38:42;;;;;;;2.67;0.40;;;8.20;99.90;;;;;;5052210;28;20457;-63
2023/01/12 06:42:27;;;;;;;2.22;0.85;;;8.30;99.90;;;;;;5053039;28;20049;-62
2023/01/12 06:43:57;;;;;;;2.58;0.40;;;8.30;99.90;;;;;;5052533;28;20593;-62
2023/01/12 06:46:22;;;;;;;3.40;0.30;;;8.40;99.90;;;;;;5035240;28;20045;-62
2023/01/12 06:48:48;;;;;;;2.67;0.60;;;8.40;99.90;;;;;;5052964;28;20506;-62
2023/01/12 06:51:14;;;;;;;0.93;0.25;;;8.40;99.90;;;;;;5052732;28;20080;-63
2023/01/12 06:53:40;;;;;;;1.35;0.38;;;8.50;99.90;;;;;;5053312;28;20080;-63
2023/01/12 06:56:06;;;;;;;0.17;0.10;;;8.50;99.90;;;;;;5052697;28;20037;-63
2023/01/12 06:58:31;;;;;;;1.55;0.22;;;8.50;99.90;;;;;;5053004;28;20372;-63
2023/01/12 07:01:01;;;;;;;3.67;0.20;;;8.50;99.90;;;;;;5049501;28;20101;-62
2023/01/12 07:03:27;;;;;;;1.70;0.20;;;8.60;99.90;;;;;;5048899;28;20053;-63
2023/01/12 07:05:52;;;;;;;0.10;0.10;;;8.60;99.90;;;;;;5052577;28;20125;-63
2023/01/12 07:08:18;;;;;;;0.20;0.20;;;8.60;99.90;;;;;;5034778;28;20056;-63
2023/01/12 07:10:45;;;;;;;0.10;0.10;;;8.60;99.90;;;;;;5051257;28;20103;-63
2023/01/12 07:13:12;;;;;;;0.10;0.10;;;8.70;99.90;;;;;;5034498;28;20480;-63
2023/01/12 07:15:38;;;;;;;0.45;0.30;;;8.70;99.90;;;;;;5053182;28;20045;-63
2023/01/12 07:18:03;;;;;;;1.23;0.40;;;8.80;99.90;;;;;;5034636;28;20359;-63
2023/01/12 07:20:31;;;;;;;0.35;0.25;;;8.70;99.90;;;;;;5046070;28;20046;-63
2023/01/12 07:22:57;;;;;;;1.23;0.30;;;8.80;99.90;;;;;;5033537;28;20037;-63
2023/01/12 07:25:23;;;;;;;0.95;0.22;;;8.80;99.90;;;;;;5052739;28;20564;-62
2023/01/12 07:27:55;;;;;;;1.63;0.43;;;8.80;99.90;;;;;;5052571;28;20415;-63
2023/01/12 07:30:21;;;;;;;0.90;0.32;;;8.90;99.90;;;;;;5032549;28;20049;-63
2023/01/12 07:32:48;;;;;;;2.38;0.40;;;9.00;99.90;;;;;;5052520;28;20053;-63
2023/01/12 07:35:15;;;;;;;0.57;0.17;;;9.00;99.90;;;;;;5051987;28;20049;-63
2023/01/12 07:37:52;;;;;;;0.63;0.20;;;9.10;99.90;;;;;;5052900;28;20033;-63
2023/01/12 07:40:18;;;;;;;2.00;0.10;;;9.10;99.90;;;;;;5022189;28;20056;-63
2023/01/12 07:42:44;;;;;;;3.22;0.50;;;9.20;99.90;;;;;;5046236;28;20072;-62
2023/01/12 07:45:11;;;;;;;3.30;0.30;;;9.20;99.90;;;;;;5049137;28;20073;-62
2023/01/12 07:47:37;;;;;;;1.08;0.30;;;9.20;99.90;;;;;;5045017;28;20087;-62
2023/01/12 07:50:03;;;;;;;3.40;0.70;;;9.20;99.90;;;;;;5046660;28;20111;-62
2023/01/12 07:52:29;;;;;;;4.07;0.60;;;9.30;99.90;;;;;;5024824;28;20045;-62
2023/01/12 07:54:55;;;;;;;1.77;0.70;;;9.30;99.90;;;;;;5020440;28;20041;-63
2023/01/12 07:57:21;;;;;;;2.22;0.50;;;9.30;99.90;;;;;;5047264;28;20516;-63
2023/01/12 07:59:47;;;;;;;0.60;0.25;;;9.40;99.90;;;;;;5047456;28;20044;-62
2023/01/12 08:02:18;;;;;;;1.33;0.50;;;9.40;99.90;;;;;;5007695;28;20057;-63
2023/01/12 08:04:44;;;;;;;1.50;0.60;;;9.40;99.90;;;;;;5021691;28;20518;-63
2023/01/12 08:07:10;;;;;;;2.30;0.47;;;9.50;99.90;;;;;;5048102;28;20092;-62
2023/01/12 08:09:35;;;;;;;6.53;0.73;;;9.50;99.90;;;;;;5048323;28;20081;-62
2023/01/12 08:12:01;;;;;;;2.47;0.47;;;9.50;99.90;;;;;;5041677;28;20048;-63
2023/01/12 08:14:32;;;;;;;4.38;0.77;;;9.60;99.90;;;;;;5047823;28;20045;-63
2023/01/12 08:17:00;;;;;;;10.07;1.27;;;9.60;99.90;;;;;;5030223;28;20041;-63
2023/01/12 08:19:43;;;;;;;8.55;0.98;;;9.60;99.90;;;;;;5047517;28;20041;-63
2023/01/12 08:22:16;;;;;;;16.00;1.55;;;9.70;99.90;;;;;;5047745;28;20033;-63
2023/01/12 08:24:54;;;;;;;10.95;1.25;;;9.70;99.90;;;;;;5047163;28;20395;-63
2023/01/12 08:27:22;;;;;;;15.02;1.20;;;9.80;99.90;;;;;;5047972;28;20163;-63
2023/01/12 08:29:54;;;;;;;12.60;1.08;;;9.80;99.90;;;;;;5029805;28;20037;-63
2023/01/12 08:32:20;;;;;;;8.13;1.30;;;9.90;99.90;;;;;;5028780;28;20045;-62
2023/01/12 08:34:52;;;;;;;20.63;2.45;;;10.00;99.90;;;;;;5029429;28;20053;-63
2023/01/12 08:37:20;;;;;;;25.83;2.90;;;10.00;99.90;;;;;;5028121;28;20053;-63
2023/01/12 08:39:47;;;;;;;15.55;1.77;;;10.10;99.90;;;;;;5048173;28;20415;-63
2023/01/12 08:42:13;;;;;;;28.10;2.88;;;10.10;99.90;;;;;;5048058;28;20500;-63
2023/01/12 08:44:38;;;;;;;16.58;1.98;;;10.10;99.90;;;;;;5041183;28;20045;-63
2023/01/12 08:47:20;;;;;;;23.42;2.78;;;10.10;99.90;;;;;;5048137;28;20809;-63
2023/01/12 08:49:46;;;;;;;23.77;2.78;;;10.20;99.90;;;;;;5029913;28;20049;-63
2023/01/12 08:52:13;;;;;;;4.20;1.08;;;10.20;99.90;;;;;;5026969;28;20056;-64
2023/01/12 08:54:39;;;;;;;19.58;1.77;;;10.30;99.90;;;;;;5047078;28;20501;-63
2023/01/12 08:57:05;;;;;;;11.15;1.40;;;10.30;99.90;;;;;;5047239;28;20041;-63
2023/01/12 08:59:31;;;;;;;24.77;3.20;;;10.40;99.90;;;;;;5028933;28;20394;-63
2023/01/12 09:01:56;;;;;;;24.55;2.22;;;10.40;99.90;;;;;;5046704;28;20063;-63
2023/01/12 09:04:22;;;;;;;23.95;2.97;;;10.50;99.90;;;;;;5047164;28;20484;-63
2023/01/12 09:06:48;;;;;;;14.35;1.65;;;10.50;99.90;;;;;;5032597;28;20103;-63
2023/01/12 09:09:17;;;;;;;10.30;2.17;;;10.50;99.90;;;;;;5046691;28;20045;-63
2023/01/12 09:11:44;;;;;;;6.83;1.43;;;10.50;99.90;;;;;;5047284;28;20041;-63
2023/01/12 09:14:12;;;;;;;19.92;1.73;;;10.60;99.90;;;;;;5046386;28;20142;-63
2023/01/12 09:16:44;;;;;;;20.25;2.53;;;10.60;99.90;;;;;;5044907;28;20066;-63
2023/01/12 09:19:10;;;;;;;6.70;1.27;;;10.60;99.90;;;;;;5024980;28;20551;-63
2023/01/12 09:21:39;;;;;;;19.38;2.17;;;10.60;99.90;;;;;;5043212;28;20045;-63
2023/01/12 09:24:05;;;;;;;20.98;2.25;;;10.70;99.90;;;;;;5024471;28;20543;-63
2023/01/12 09:26:38;;;;;;;14.85;2.00;;;10.70;99.90;;;;;;5040611;28;20041;-63
2023/01/12 09:29:06;;;;;;;13.75;2.20;;;10.70;99.90;;;;;;5047557;28;20485;-63
2023/01/12 09:31:34;;;;;;;12.52;2.33;;;10.70;99.90;;;;;;5035855;28;20048;-63
2023/01/12 09:34:02;;;;;;;13.55;1.83;;;10.80;99.90;;;;;;5047824;28;20491;-63
2023/01/12 09:36:30;;;;;;;18.88;1.98;;;10.80;99.90;;;;;;5027374;28;20052;-63
2023/01/12 09:38:57;;;;;;;11.85;1.92;;;10.80;99.90;;;;;;5022943;28;20462;-63
2023/01/12 09:47:46;;;;;;;9.13;1.30;;;10.80;99.90;;;;;;5036112;28;20076;-64
2023/01/12 09:50:20;;;;;;;8.30;1.77;;;10.80;99.90;;;;;;5047081;28;20044;-64
2023/01/12 09:53:03;;;;;;;16.27;2.33;;;10.90;99.90;;;;;;5021639;28;20143;-64
2023/01/12 09:55:42;;;;;;;13.15;1.08;;;10.90;99.90;;;;;;5042105;28;20040;-64
2023/01/12 09:58:27;;;;;;;10.80;1.98;;;10.90;99.90;;;;;;5044359;28;20057;-64
2023/01/12 10:00:58;;;;;;;5.13;1.25;;;10.90;99.90;;;;;;5044026;28;20495;-64
2023/01/12 10:03:26;;;;;;;9.55;1.48;;;10.90;99.90;;;;;;5044140;28;20384;-64
2023/01/12 10:05:56;;;;;;;4.45;0.90;;;10.90;99.90;;;;;;5043809;28;20123;-64
2023/01/12 10:08:33;;;;;;;4.40;0.93;;;10.90;99.90;;;;;;5044606;28;20063;-64
2023/01/12 10:11:07;;;;;;;2.25;0.68;;;10.90;99.90;;;;;;5046660;28;20051;-63
2023/01/12 10:14:10;;;;;;;6.18;0.90;;;10.90;99.90;;;;;;5026991;28;20487;-64
2023/01/12 10:17:14;;;;;;;1.27;0.30;;;10.90;99.90;;;;;;5035043;28;20079;-63
2023/01/12 10:20:08;;;;;;;15.30;2.05;;;10.90;99.90;;;;;;5045993;28;20502;-63
2023/01/12 10:22:54;;;;;;;13.10;1.75;;;10.90;99.90;;;;;;5045732;28;20580;-64
2023/01/12 10:25:35;;;;;;;4.70;1.00;;;11.10;99.90;;;;;;5026107;28;20041;-63
2023/01/12 10:28:24;;;;;;;4.07;1.10;;;11.10;99.90;;;;;;5044823;28;20076;-64
2023/01/12 10:30:50;;;;;;;7.70;1.35;;;11.20;99.90;;;;;;5043184;28;20483;-64
2023/01/12 10:33:25;;;;;;;3.75;0.77;;;11.20;99.90;;;;;;5044639;28;20530;-64
2023/01/12 10:35:57;;;;;;;3.80;0.85;;;11.10;99.90;;;;;;5036146;28;20049;-64
2023/01/12 10:38:27;;;;;;;4.60;1.00;;;11.10;99.90;;;;;;5046207;28;20465;-64
2023/01/12 10:41:16;;;;;;;2.95;0.85;;;11.00;99.90;;;;;;5036193;28;20095;-64
2023/01/12 10:43:55;;;;;;;5.82;1.00;;;10.90;99.90;;;;;;5026559;28;20041;-64
2023/01/12 10:46:23;;;;;;;11.50;1.25;;;10.90;99.90;;;;;;5044983;28;20549;-64
2023/01/12 10:48:54;;;;;;;2.60;0.45;;;10.90;99.90;;;;;;5027999;28;20045;-64
2023/01/12 10:51:28;;;;;;;1.63;0.75;;;10.90;99.90;;;;;;5026311;28;20057;-64
2023/01/12 10:54:17;;;;;;;4.28;1.20;;;10.90;99.90;;;;;;5045146;28;20037;-64
2023/01/12 10:57:01;;;;;;;6.07;1.27;;;11.00;99.90;;;;;;5033714;28;20111;-64
2023/01/12 10:59:33;;;;;;;11.20;1.73;;;11.10;99.90;;;;;;5027064;28;20480;-64
2023/01/12 11:02:12;;;;;;;10.10;1.27;;;11.10;99.90;;;;;;5001495;28;20729;-64
2023/01/12 11:04:44;;;;;;;;;;;11.10;99.90;;;;;;5015754;28;20092;-64
2023/01/12 11:07:14;;;;;;;6.65;1.10;;;11.10;99.90;;;;;;5045085;28;20375;-64
2023/01/12 11:09:42;;;;;;;5.40;1.05;;;11.10;99.90;;;;;;5011301;28;20195;-64
2023/01/12 11:12:34;;;;;;;2.85;1.30;;;11.20;99.90;;;;;;5045705;28;20141;-64
2023/01/12 11:15:15;;;;;;;7.22;1.38;;;11.20;99.90;;;;;;5014112;28;20172;-64
2023/01/12 11:17:59;;;;;;;6.60;0.85;;;11.10;99.90;;;;;;5028251;28;20048;-64
2023/01/12 11:20:26;;;;;;;3.90;1.02;;;11.10;99.90;;;;;;5047839;28;20476;-64
2023/01/12 11:22:55;;;;;;;8.45;1.92;;;11.20;99.90;;;;;;5048702;28;20403;-64
2023/01/12 11:25:24;;;;;;;5.75;1.08;;;11.20;99.90;;;;;;5048341;28;20090;-64
2023/01/12 11:27:49;;;;;;;28.02;2.40;;;11.20;99.90;;;;;;5030701;28;20063;-64
2023/01/12 11:30:20;;;;;;;6.93;1.60;;;11.20;99.90;;;;;;5048449;28;20041;-64
2023/01/12 11:32:57;;;;;;;4.28;1.00;;;11.20;99.90;;;;;;5048001;28;20260;-64
2023/01/12 11:35:57;;;;;;;4.15;0.73;;;11.20;99.90;;;;;;5042712;28;20069;-64
2023/01/12 11:38:55;;;;;;;2.90;0.60;;;11.20;99.90;;;;;;5030812;28;20049;-64
2023/01/12 11:43:47;;;;;;;4.38;0.40;;;11.20;99.90;;;;;;5014581;28;20053;-64
2023/01/12 11:44:50;;;;;;;1.30;0.68;;;11.10;99.90;;;;;;5042951;28;20135;-64
2023/01/12 11:47:22;;;;;;;9.55;0.93;;;11.10;99.90;;;;;;5044090;28;20045;-64
2023/01/12 11:49:59;;;;;;;10.57;2.00;;;11.10;99.90;;;;;;5048602;28;20056;-64
2023/01/12 11:52:26;;;;;;;8.82;2.03;;;11.00;99.90;;;;;;5008957;28;20056;-63
2023/01/12 11:54:52;;;;;;;12.55;1.98;;;11.00;99.90;;;;;;5047593;28;21053;-63
2023/01/12 11:57:41;;;;;;;3.40;0.88;;;10.90;99.90;;;;;;5045021;28;20344;-64
2023/01/12 12:00:28;;;;;;;12.27;2.00;;;10.90;99.90;;;;;;5048250;28;20044;-63
2023/01/12 12:03:38;;;;;;;4.60;0.82;;;10.90;99.90;;;;;;5047516;28;20047;-63
2023/01/12 12:06:26;;;;;;;16.38;2.20;;;10.90;99.90;;;;;;5017529;28;20332;-63
2023/01/12 12:09:20;;;;;;;20.15;2.20;;;11.00;99.90;;;;;;5028080;28;20128;-64
2023/01/12 12:12:00;;;;;;;8.65;1.08;;;11.00;99.90;;;;;;5031371;28;20057;-64
2023/01/12 12:14:38;;;;;;;8.80;1.52;;;11.10;99.90;;;;;;5047321;28;20403;-64
2023/01/12 12:17:14;;;;;;;4.95;0.98;;;11.20;99.90;;;;;;5028718;28;20076;-64
2023/01/12 12:19:58;;;;;;;7.93;1.27;;;11.30;99.90;;;;;;5047565;28;20064;-64
2023/01/12 12:22:48;;;;;;;6.85;1.20;;;11.30;99.90;;;;;;5046692;28;20383;-64
2023/01/12 12:25:26;;;;;;;12.43;1.10;;;11.40;99.90;;;;;;5045283;28;20041;-64
2023/01/12 12:28:19;;;;;;;15.32;1.33;;;11.40;99.90;;;;;;5038767;28;20041;-64
2023/01/12 12:30:59;;;;;;;5.72;0.75;;;11.50;99.90;;;;;;5028329;28;20057;-63
2023/01/12 12:33:49;;;;;;;2.75;0.80;;;11.50;99.90;;;;;;5043769;28;20166;-64
2023/01/12 12:36:20;;;;;;;4.15;1.30;;;11.60;99.90;;;;;;5044683;28;20045;-63
2023/01/12 12:39:08;;;;;;;2.30;0.73;;;11.60;99.90;;;;;;5043345;28;20032;-64
2023/01/12 12:48:08;;;;;;;9.88;1.27;;;11.60;99.90;;;;;;5043298;28;20060;-63
2023/01/12 12:51:03;;;;;;;13.40;1.20;;;11.70;99.90;;;;;;5027892;28;20492;-64
2023/01/12 12:53:42;;;;;;;6.38;0.88;;;11.80;99.90;;;;;;5028206;28;20377;-64
2023/01/12 12:56:15;;;;;;;10.15;1.98;;;11.80;99.90;;;;;;5043470;28;20041;-64
2023/01/12 12:58:53;;;;;;;1.55;0.17;;;11.80;99.90;;;;;;5027931;28;20446;-64
2023/01/12 13:01:19;;;;;;;0.73;0.43;;;11.80;99.90;;;;;;5027308;28;20049;-64
2023/01/12 13:03:50;;;;;;;7.85;1.60;;;11.80;99.90;;;;;;5046316;28;20037;-64
2023/01/12 13:06:28;;;;;;;6.05;0.85;;;11.70;99.90;;;;;;5044236;28;20061;-64
2023/01/12 13:09:09;;;;;;;9.63;1.55;;;11.70;99.90;;;;;;5046121;28;20483;-64
2023/01/12 13:12:27;;;;;;;14.13;1.75;;;11.70;99.90;;;;;;5027872;28;20416;-64
2023/01/12 13:15:17;;;;;;;12.15;1.88;;;11.70;99.90;;;;;;5045144;28;20075;-64
2023/01/12 13:17:45;;;;;;;6.00;0.77;;;11.60;99.90;;;;;;5027730;28;20080;-63
2023/01/12 13:20:37;;;;;;;8.10;1.10;;;11.50;99.90;;;;;;5046009;28;20040;-64
2023/01/12 13:23:23;;;;;;;5.20;0.57;;;11.40;99.90;;;;;;5044736;28;20047;-63
2023/01/12 13:25:55;;;;;;;12.85;1.52;;;11.40;99.90;;;;;;5041106;28;20037;-64
2023/01/12 13:28:21;;;;;;;19.23;2.05;;;11.30;99.90;;;;;;5045611;28;20086;-63
2023/01/12 13:30:52;;;;;;;2.45;0.80;;;11.30;99.90;;;;;;5044105;28;20132;-64
2023/01/12 13:33:28;;;;;;;18.65;2.17;;;11.30;99.90;;;;;;5043029;28;20052;-64
2023/01/12 13:36:03;;;;;;;6.10;0.55;;;11.30;99.90;;;;;;5021382;28;20122;-64
2023/01/12 13:38:42;;;;;;;9.60;1.38;;;11.30;99.90;;;;;;5026302;28;20052;-64
2023/01/12 13:43:13;;;;;;;14.75;1.58;;;11.30;99.90;;;;;;5043068;28;20080;-64